createdAt,value
2022-12-23T06:55:57.291Z,16.9
2022-12-23T07:00:59.628Z,16.9
2022-12-23T07:06:01.756Z,16.9
2022-12-23T11:07:11.015Z,16.5
2022-12-23T11:11:55.297Z,16.5
2022-12-23T11:16:57.585Z,16.5
2022-12-23T11:21:59.782Z,16.9
2022-12-23T11:27:01.887Z,17.4
2022-12-23T11:32:04.089Z,18
2022-12-23T11:37:07.627Z,18.6
2022-12-23T11:42:08.394Z,18.9
2022-12-23T11:47:10.539Z,19
2022-12-23T11:52:12.713Z,19.1
2022-12-23T11:57:14.933Z,19.1
2022-12-23T12:02:16.978Z,19.2
2022-12-23T12:07:19.110Z,19.2
2022-12-23T12:12:21.237Z,19.2
2022-12-23T12:17:23.376Z,19.1
2022-12-23T12:22:25.533Z,19
2022-12-23T12:27:27.654Z,19
2022-12-23T12:32:29.776Z,18.9
2022-12-23T12:37:32.093Z,18.9
2022-12-23T12:42:34.226Z,18.8
2022-12-23T12:47:53.108Z,18.8
2022-12-23T12:52:38.658Z,18.8
2022-12-23T12:57:40.953Z,18.9
2022-12-23T13:02:43.195Z,19
2022-12-23T13:07:45.447Z,19
2022-12-23T13:12:47.756Z,19
2022-12-23T13:17:50.001Z,19.1
2022-12-23T13:22:52.297Z,19.2
2022-12-23T13:27:54.548Z,19.3
2022-12-23T13:32:56.693Z,19.4
2022-12-23T13:37:58.903Z,19.5
2022-12-23T13:43:01.073Z,19.8
2022-12-23T13:48:05.232Z,20.1
2022-12-23T13:53:05.613Z,20.3
2022-12-23T13:58:07.833Z,20.5
2022-12-23T14:03:10.090Z,20.5
2022-12-23T14:08:12.167Z,20.4
2022-12-23T14:13:14.279Z,20.4
2022-12-23T14:18:16.440Z,20.3
2022-12-23T14:23:18.633Z,20.2
2022-12-23T14:28:20.732Z,20.1
2022-12-23T14:33:22.863Z,20
2022-12-23T14:38:25.036Z,20
2022-12-23T14:43:27.140Z,19.9
2022-12-23T14:48:29.305Z,19.8
2022-12-23T14:53:31.481Z,19.7
2022-12-23T14:58:33.592Z,19.7
2022-12-23T15:03:35.850Z,19.7
2022-12-23T15:08:38.143Z,19.6
2022-12-23T15:13:40.278Z,19.6
2022-12-23T15:18:42.504Z,19.6
2022-12-23T15:23:44.683Z,19.5
2022-12-23T15:28:46.800Z,19.5
2022-12-23T15:34:02.645Z,19.5
2022-12-23T15:38:51.173Z,19.4
2022-12-23T15:43:34.415Z,19.4
2022-12-23T16:11:15.883Z,16.7
2022-12-23T16:16:18.002Z,16.7
2022-12-23T16:21:20.248Z,16.7
2022-12-23T16:26:22.510Z,16.9
2022-12-23T16:31:24.661Z,17.3
2022-12-23T16:36:26.891Z,17.7
2022-12-23T16:41:29.046Z,18.2
2022-12-23T16:46:31.365Z,18.6
2022-12-23T16:51:33.570Z,18.8
2022-12-23T16:56:35.870Z,18.9
2022-12-23T17:01:38.286Z,19
2022-12-23T17:06:40.286Z,19
2022-12-23T17:11:42.505Z,19.1
2022-12-23T17:16:44.732Z,19.1
2022-12-23T17:21:46.785Z,19.2
2022-12-23T17:26:48.950Z,19.2
2022-12-23T17:31:51.263Z,19.3
2022-12-23T17:36:53.486Z,19.3
2022-12-23T17:41:55.762Z,19.3
2022-12-23T17:46:57.888Z,19.3
2022-12-23T17:52:00.048Z,19.4
2022-12-23T17:57:02.213Z,19.4
2022-12-23T18:02:04.381Z,19.4
2022-12-23T18:07:06.489Z,19.5
2022-12-23T18:12:08.720Z,19.5
2022-12-23T18:17:10.970Z,19.4
2022-12-23T18:22:13.089Z,19.4
2022-12-23T19:55:30.553Z,16.9
2022-12-23T20:04:50.097Z,17.1
2022-12-23T22:42:35.183Z,16.4
